createdAt,value
2022-09-23T00:01:10.566Z,0.80
2022-09-23T00:03:41.757Z,0.80
2022-09-23T00:06:11.053Z,0.80
2022-09-23T00:08:38.870Z,1.00
2022-09-23T00:11:07.754Z,0.80
2022-09-23T00:13:35.315Z,0.80
2022-09-23T00:16:06.738Z,0.73
2022-09-23T00:18:33.631Z,0.70
2022-09-23T00:21:07.298Z,0.70
2022-09-23T00:23:33.864Z,0.82
2022-09-23T00:26:02.582Z,0.80
2022-09-23T00:28:30.819Z,0.80
2022-09-23T00:31:05.716Z,0.80
2022-09-23T00:33:32.628Z,0.90
2022-09-23T00:36:01.908Z,0.70
2022-09-23T00:38:28.542Z,0.80
2022-09-23T00:40:55.109Z,0.80
2022-09-23T00:43:37.631Z,0.80
2022-09-23T00:46:06.464Z,0.85
2022-09-23T00:48:33.065Z,0.68
2022-09-23T00:50:59.782Z,0.90
2022-09-23T00:53:26.735Z,0.80
2022-09-23T00:55:57.413Z,0.77
2022-09-23T00:58:27.962Z,0.80
2022-09-23T01:00:55.541Z,0.80
2022-09-23T01:03:22.924Z,0.77
2022-09-23T01:05:50.248Z,0.80
2022-09-23T01:08:17.970Z,0.70
2022-09-23T01:11:09.332Z,0.73
2022-09-23T01:13:38.695Z,0.85
2022-09-23T01:16:10.330Z,0.80
2022-09-23T01:19:03.046Z,0.80
2022-09-23T01:21:48.710Z,0.80
2022-09-23T01:24:24.097Z,0.80
2022-09-23T01:27:10.343Z,0.75
2022-09-23T01:30:07.236Z,0.82
2022-09-23T01:33:04.772Z,1.00
2022-09-23T01:35:31.321Z,0.80
2022-09-23T01:38:16.620Z,1.00
2022-09-23T01:41:04.582Z,1.00
2022-09-23T01:43:42.851Z,0.90
2022-09-23T01:46:18.095Z,1.00
2022-09-23T01:48:54.118Z,1.00
2022-09-23T01:51:30.945Z,1.05
2022-09-23T01:54:10.666Z,1.10
2022-09-23T01:57:02.909Z,1.15
2022-09-23T01:59:36.573Z,1.15
2022-09-23T02:02:15.198Z,1.15
2022-09-23T02:04:54.167Z,1.13
2022-09-23T02:07:35.448Z,1.02
2022-09-23T02:10:25.518Z,1.20
2022-09-23T02:12:57.611Z,1.23
2022-09-23T02:15:32.643Z,1.00
2022-09-23T02:18:05.221Z,1.20
2022-09-23T02:20:37.384Z,1.10
2022-09-23T02:23:09.898Z,1.25
2022-09-23T02:26:05.385Z,1.10
2022-09-23T02:28:41.163Z,1.38
2022-09-23T02:31:20.648Z,1.20
2022-09-23T02:34:14.026Z,1.27
2022-09-23T02:36:50.101Z,1.13
2022-09-23T02:39:20.683Z,1.30
2022-09-23T02:42:02.163Z,1.20
2022-09-23T02:44:28.983Z,1.30
2022-09-23T02:46:56.773Z,1.30
2022-09-23T02:49:26.595Z,1.25
2022-09-23T02:51:54.545Z,1.17
2022-09-23T02:54:25.679Z,1.45
2022-09-23T02:56:53.213Z,1.40
2022-09-23T02:59:22.333Z,1.30
2022-09-23T03:02:14.023Z,1.20
2022-09-23T03:05:19.237Z,1.30
2022-09-23T03:07:49.325Z,1.30
2022-09-23T03:10:37.656Z,1.20
2022-09-23T03:13:19.426Z,1.30
2022-09-23T03:15:59.555Z,1.30
2022-09-23T03:18:37.073Z,1.20
2022-09-23T03:21:28.968Z,1.20
2022-09-23T03:23:59.818Z,1.40
2022-09-23T03:26:34.037Z,1.10
2022-09-23T03:29:05.218Z,1.20
2022-09-23T03:31:33.970Z,1.10
2022-09-23T03:34:05.986Z,1.30
2022-09-23T03:37:00.944Z,1.60
2022-09-23T03:39:36.717Z,1.10
2022-09-23T03:42:21.256Z,1.30
2022-09-23T03:44:51.474Z,1.27
2022-09-23T03:49:50.754Z,1.40
2022-09-23T03:52:19.441Z,1.40
2022-09-23T03:54:52.830Z,1.60
2022-09-23T03:57:22.132Z,1.30
2022-09-23T03:59:52.823Z,1.40
2022-09-23T04:02:20.235Z,1.20
2022-09-23T04:04:46.979Z,1.30
2022-09-23T04:07:14.218Z,1.30
2022-09-23T04:09:41.036Z,1.40
2022-09-23T04:12:08.287Z,1.38
2022-09-23T04:14:35.523Z,1.30
2022-09-23T04:17:02.778Z,1.40
2022-09-23T04:19:29.462Z,1.35
2022-09-23T04:21:56.039Z,1.40
2022-09-23T04:24:22.647Z,1.33
2022-09-23T04:26:53.786Z,1.33
2022-09-23T04:29:21.019Z,1.40
2022-09-23T04:31:48.150Z,1.27
2022-09-23T04:34:17.305Z,1.40
2022-09-23T04:36:45.327Z,1.30
2022-09-23T04:39:13.123Z,1.40
2022-09-23T04:41:39.681Z,1.50
2022-09-23T04:44:06.500Z,1.50
2022-09-23T04:46:33.156Z,1.80
2022-09-23T04:49:00.067Z,1.60
2022-09-23T04:51:27.784Z,2.30
2022-09-23T04:53:55.882Z,1.75
2022-09-23T04:56:26.304Z,1.60
2022-09-23T04:58:53.088Z,1.55
2022-09-23T05:01:24.319Z,1.50
2022-09-23T05:03:57.805Z,1.60
2022-09-23T05:06:25.163Z,1.52
2022-09-23T05:08:54.066Z,1.77
2022-09-23T05:11:21.498Z,1.80
2022-09-23T05:13:49.817Z,1.90
2022-09-23T05:16:17.716Z,1.70
2022-09-23T05:18:45.998Z,1.60
2022-09-23T05:21:16.618Z,1.88
2022-09-23T05:23:47.773Z,1.70
2022-09-23T05:26:14.972Z,1.60
2022-09-23T05:28:41.754Z,1.70
2022-09-23T05:31:19.317Z,1.67
2022-09-23T05:33:55.756Z,1.60
2022-09-23T05:36:23.298Z,1.60
2022-09-23T05:38:50.911Z,1.52
2022-09-23T05:41:19.606Z,1.60
2022-09-23T05:43:47.318Z,1.30
2022-09-23T05:46:20.889Z,1.20
2022-09-23T05:48:47.689Z,1.30
2022-09-23T05:51:20.141Z,1.40
2022-09-23T05:53:47.907Z,1.50
2022-09-23T05:56:20.059Z,1.40
2022-09-23T05:58:50.372Z,1.45
2022-09-23T06:03:49.061Z,1.30
2022-09-23T06:06:18.190Z,1.63
2022-09-23T06:08:46.268Z,1.40
2022-09-23T06:11:13.823Z,1.30
2022-09-23T06:13:41.379Z,1.30
2022-09-23T06:16:13.869Z,1.60
2022-09-23T06:18:45.667Z,1.30
2022-09-23T06:21:15.135Z,1.48
2022-09-23T06:23:42.344Z,1.50
2022-09-23T06:26:11.587Z,1.30
2022-09-23T06:28:40.432Z,1.30
2022-09-23T06:31:16.926Z,1.50
2022-09-23T06:33:45.060Z,1.40
2022-09-23T06:36:19.484Z,1.50
2022-09-23T06:38:57.546Z,2.00
2022-09-23T06:41:24.378Z,2.15
2022-09-23T06:43:51.014Z,2.25
2022-09-23T06:46:17.741Z,2.10
2022-09-23T06:48:46.337Z,1.85
2022-09-23T06:51:19.345Z,1.80
2022-09-23T06:53:47.986Z,1.52
2022-09-23T06:56:15.616Z,1.50
2022-09-23T06:58:43.145Z,1.52
2022-09-23T07:01:12.273Z,1.60
2022-09-23T07:03:39.265Z,1.65
2022-09-23T07:06:06.457Z,1.80
2022-09-23T07:08:34.031Z,1.60
2022-09-23T07:11:03.122Z,1.60
2022-09-23T07:13:30.820Z,1.48
2022-09-23T07:15:58.928Z,1.40
2022-09-23T07:18:27.047Z,1.20
2022-09-23T07:20:58.829Z,1.20
2022-09-23T07:23:25.740Z,1.30
2022-09-23T07:25:52.632Z,1.50
2022-09-23T07:28:20.130Z,1.40
2022-09-23T07:30:57.534Z,1.20
2022-09-23T07:33:32.210Z,1.38
2022-09-23T07:35:59.650Z,1.45
2022-09-23T07:38:30.072Z,1.30
2022-09-23T07:41:10.300Z,1.20
2022-09-23T07:43:38.578Z,1.30
2022-09-23T07:46:08.859Z,1.20
2022-09-23T07:48:36.643Z,1.20
2022-09-23T07:51:12.737Z,1.40
2022-09-23T07:53:39.563Z,1.30
2022-09-23T07:56:06.666Z,1.30
2022-09-23T07:58:34.670Z,1.23
2022-09-23T08:01:06.788Z,1.00
2022-09-23T08:03:35.343Z,1.48
2022-09-23T08:06:10.826Z,1.10
2022-09-23T08:08:40.400Z,1.10
2022-09-23T08:11:10.287Z,1.30
2022-09-23T08:13:37.719Z,1.00
2022-09-23T08:16:04.650Z,0.95
2022-09-23T08:18:31.314Z,1.00
2022-09-23T08:20:57.959Z,0.95
2022-09-23T08:23:25.326Z,1.20
2022-09-23T08:26:00.178Z,0.95
2022-09-23T08:28:27.640Z,1.02
2022-09-23T08:30:55.411Z,1.30
2022-09-23T08:33:23.828Z,1.02
2022-09-23T08:35:52.427Z,1.10
2022-09-23T08:38:19.608Z,1.60
2022-09-23T08:40:49.522Z,1.27
2022-09-23T08:43:33.960Z,1.50
2022-09-23T08:46:08.629Z,1.10
2022-09-23T08:48:42.362Z,0.90
2022-09-23T08:51:14.249Z,0.95
2022-09-23T08:53:42.287Z,1.23
2022-09-23T08:56:22.636Z,0.88
2022-09-23T08:59:11.148Z,0.90
2022-09-23T09:01:40.670Z,0.90
2022-09-23T09:04:27.957Z,0.82
2022-09-23T09:07:35.721Z,0.80
2022-09-23T09:10:22.393Z,0.70
2022-09-23T09:13:20.488Z,0.70
2022-09-23T09:16:36.624Z,0.80
2022-09-23T09:19:18.909Z,0.90
2022-09-23T09:21:48.045Z,1.00
2022-09-23T09:24:27.948Z,1.20
2022-09-23T09:26:54.651Z,0.90
2022-09-23T09:29:44.937Z,0.80
2022-09-23T09:35:05.577Z,0.90
2022-09-23T09:37:44.610Z,1.00
2022-09-23T09:40:12.270Z,1.00
2022-09-23T09:42:41.477Z,0.90
2022-09-23T09:45:19.895Z,0.93
2022-09-23T09:48:17.802Z,0.70
2022-09-23T09:50:49.338Z,1.00
2022-09-23T09:53:19.229Z,0.90
2022-09-23T09:55:48.406Z,0.88
2022-09-23T09:58:21.042Z,0.90
2022-09-23T10:00:50.599Z,0.60
2022-09-23T10:03:26.303Z,0.60
2022-09-23T10:05:54.549Z,0.60
2022-09-23T10:08:35.471Z,0.70
2022-09-23T10:11:17.039Z,0.68
2022-09-23T10:14:12.632Z,0.70
2022-09-23T10:16:41.487Z,0.70
2022-09-23T10:19:17.538Z,0.57
2022-09-23T10:21:50.662Z,0.60
2022-09-23T10:24:23.575Z,0.60
2022-09-23T10:26:59.455Z,0.80
2022-09-23T10:29:29.029Z,0.60
2022-09-23T10:32:19.954Z,0.70
2022-09-23T10:35:10.938Z,0.70
2022-09-23T10:38:00.454Z,0.80
2022-09-23T10:40:52.750Z,1.00
2022-09-23T10:43:53.636Z,1.10
2022-09-23T10:46:42.086Z,0.90
2022-09-23T10:49:36.588Z,1.10
2022-09-23T10:52:24.467Z,0.95
2022-09-23T10:55:12.206Z,0.82
2022-09-23T10:57:47.684Z,0.80
2022-09-23T11:00:29.169Z,0.85
2022-09-23T11:03:04.340Z,0.88
2022-09-23T11:05:46.958Z,0.80
2022-09-23T11:08:24.521Z,0.95
2022-09-23T11:11:17.539Z,0.80
2022-09-23T11:13:54.497Z,0.90
2022-09-23T11:16:51.495Z,0.90
2022-09-23T11:19:36.475Z,0.80
2022-09-23T11:22:15.873Z,0.90
2022-09-23T11:24:50.172Z,1.00
2022-09-23T11:27:29.796Z,1.10
2022-09-23T11:30:09.405Z,1.10
2022-09-23T11:32:54.298Z,1.00
2022-09-23T11:35:41.659Z,1.00
2022-09-23T11:38:13.038Z,1.00
2022-09-23T11:40:44.078Z,0.93
2022-09-23T11:43:23.321Z,0.82
2022-09-23T11:46:05.026Z,1.50
2022-09-23T11:48:44.074Z,1.20
2022-09-23T11:51:24.727Z,1.00
2022-09-23T11:54:22.905Z,1.20
2022-09-23T11:56:56.966Z,0.90
2022-09-23T12:02:32.451Z,1.00
2022-09-23T12:05:25.580Z,1.00
2022-09-23T12:08:05.021Z,0.90
2022-09-23T12:10:50.829Z,0.90
2022-09-23T12:13:43.790Z,0.90
2022-09-23T12:16:19.332Z,0.80
2022-09-23T12:18:57.312Z,0.80
2022-09-23T12:22:02.533Z,0.80
2022-09-23T12:24:47.810Z,0.70
2022-09-23T12:27:33.001Z,0.60
2022-09-23T12:30:03.819Z,0.50
2022-09-23T12:32:31.440Z,0.50
2022-09-23T12:34:59.605Z,0.60
2022-09-23T12:37:35.581Z,0.70
2022-09-23T12:40:09.363Z,0.65
2022-09-23T12:42:44.433Z,0.85
2022-09-23T12:45:32.728Z,0.60
2022-09-23T12:48:03.190Z,0.70
2022-09-23T12:50:49.299Z,1.40
2022-09-23T12:53:33.952Z,1.73
2022-09-23T12:56:15.495Z,1.10
2022-09-23T12:58:42.320Z,1.00
2022-09-23T13:01:21.289Z,0.90
2022-09-23T13:04:11.231Z,0.50
2022-09-23T13:06:42.161Z,0.40
2022-09-23T13:09:22.496Z,0.30
2022-09-23T13:11:50.374Z,0.25
2022-09-23T13:14:26.739Z,0.30
2022-09-23T13:16:57.205Z,0.30
2022-09-23T13:19:27.016Z,0.40
2022-09-23T13:21:53.564Z,0.57
2022-09-23T13:24:24.414Z,0.30
2022-09-23T13:27:02.748Z,0.30
2022-09-23T13:29:37.393Z,0.40
2022-09-23T13:32:05.998Z,0.40
2022-09-23T13:34:34.652Z,0.50
2022-09-23T13:37:22.991Z,0.40
2022-09-23T13:39:50.392Z,0.40
2022-09-23T13:42:39.891Z,0.40
2022-09-23T13:45:18.032Z,0.40
2022-09-23T13:47:46.476Z,0.30
2022-09-23T13:50:21.325Z,0.30
2022-09-23T13:52:57.173Z,0.40
2022-09-23T13:55:33.938Z,0.45
2022-09-23T13:58:22.388Z,0.50
2022-09-23T14:00:50.034Z,0.60
2022-09-23T14:03:36.077Z,0.60
2022-09-23T14:06:10.633Z,0.60
2022-09-23T14:08:40.276Z,0.60
2022-09-23T14:11:07.134Z,0.60
2022-09-23T14:13:42.120Z,0.55
2022-09-23T14:16:14.943Z,0.70
2022-09-23T14:18:45.597Z,0.55
2022-09-23T14:21:35.294Z,0.60
2022-09-23T14:24:17.379Z,1.02
2022-09-23T14:26:48.528Z,0.70
2022-09-23T14:29:27.228Z,0.80
2022-09-23T14:32:04.984Z,0.73
2022-09-23T14:34:49.008Z,1.00
2022-09-23T14:37:37.220Z,0.80
2022-09-23T14:40:09.584Z,0.77
2022-09-23T14:42:43.752Z,0.50
2022-09-23T14:45:17.335Z,0.50
2022-09-23T14:47:47.983Z,0.47
2022-09-23T14:50:36.857Z,0.50
2022-09-23T14:53:05.176Z,0.50
2022-09-23T14:55:31.870Z,0.63
2022-09-23T14:58:04.687Z,0.70
2022-09-23T15:00:31.699Z,0.60
2022-09-23T15:03:03.481Z,0.80
2022-09-23T15:05:43.682Z,1.50
2022-09-23T15:10:46.342Z,0.60
2022-09-23T15:13:18.524Z,1.00
2022-09-23T15:15:45.504Z,0.80
2022-09-23T15:18:18.565Z,0.90
2022-09-23T15:20:54.113Z,0.68
2022-09-23T15:23:46.186Z,0.60
2022-09-23T15:26:21.482Z,0.60
2022-09-23T15:28:49.757Z,0.60
2022-09-23T15:31:19.637Z,0.68
2022-09-23T15:33:47.901Z,0.73
2022-09-23T15:36:16.614Z,0.60
2022-09-23T15:38:44.722Z,0.60
2022-09-23T15:41:11.377Z,0.70
2022-09-23T15:43:40.426Z,0.73
2022-09-23T15:46:13.126Z,0.60
2022-09-23T15:48:54.197Z,0.85
2022-09-23T15:51:24.586Z,0.70
2022-09-23T15:53:51.169Z,0.73
2022-09-23T15:56:17.761Z,0.70
2022-09-23T15:58:44.363Z,0.75
2022-09-23T16:01:18.127Z,0.80
2022-09-23T16:03:44.896Z,0.75
2022-09-23T16:06:13.417Z,0.80
2022-09-23T16:08:42.209Z,0.80
2022-09-23T16:11:20.505Z,0.90
2022-09-23T16:13:47.083Z,0.90
2022-09-23T16:16:14.114Z,0.70
2022-09-23T16:18:43.760Z,0.80
2022-09-23T16:21:15.229Z,0.70
2022-09-23T16:23:43.881Z,0.90
2022-09-23T16:26:10.493Z,0.73
2022-09-23T16:28:37.138Z,0.98
2022-09-23T16:31:03.990Z,0.80
2022-09-23T16:33:30.783Z,0.90
2022-09-23T16:36:00.837Z,1.00
2022-09-23T16:38:29.050Z,0.80
2022-09-23T16:41:00.562Z,0.90
2022-09-23T16:43:31.629Z,0.93
2022-09-23T16:45:58.758Z,1.08
2022-09-23T16:48:26.035Z,1.10
2022-09-23T16:50:54.009Z,1.20
2022-09-23T16:53:21.849Z,1.30
2022-09-23T16:55:48.446Z,1.20
2022-09-23T16:58:15.038Z,1.10
2022-09-23T17:01:00.607Z,1.10
2022-09-23T17:03:42.549Z,1.20
2022-09-23T17:06:15.382Z,1.38
2022-09-23T17:08:42.904Z,1.38
2022-09-23T17:11:14.424Z,1.50
2022-09-23T17:13:42.345Z,1.35
2022-09-23T17:16:11.566Z,1.30
2022-09-23T17:18:41.381Z,1.27
2022-09-23T17:21:08.299Z,1.33
2022-09-23T17:23:36.445Z,1.40
2022-09-23T17:26:05.535Z,1.42
2022-09-23T17:28:32.357Z,1.25
2022-09-23T17:31:00.902Z,1.30
2022-09-23T17:33:29.197Z,1.50
2022-09-23T17:35:56.974Z,1.30
2022-09-23T17:38:28.627Z,2.50
2022-09-23T17:40:57.574Z,1.30
2022-09-23T17:43:27.006Z,1.17
2022-09-23T17:45:56.292Z,1.10
2022-09-23T17:48:25.325Z,1.13
2022-09-23T17:51:02.415Z,1.35
2022-09-23T17:53:31.842Z,1.00
2022-09-23T17:56:00.390Z,1.00
2022-09-23T17:58:30.035Z,1.20
2022-09-23T18:00:57.390Z,1.20
2022-09-23T18:03:25.970Z,1.10
2022-09-23T18:05:53.336Z,1.20
2022-09-23T18:08:20.401Z,1.30
2022-09-23T18:10:47.210Z,1.10
2022-09-23T18:13:13.801Z,1.10
2022-09-23T18:15:40.894Z,1.13
2022-09-23T18:18:07.637Z,1.00
2022-09-23T18:20:34.264Z,1.00
2022-09-23T18:23:00.814Z,1.00
2022-09-23T18:25:39.252Z,1.10
2022-09-23T18:28:06.459Z,1.10
2022-09-23T18:30:33.623Z,1.20
2022-09-23T18:33:00.249Z,1.02
2022-09-23T18:35:26.802Z,1.20
2022-09-23T18:37:53.398Z,1.17
2022-09-23T18:40:21.386Z,1.38
2022-09-23T18:42:48.386Z,1.20
2022-09-23T18:45:14.983Z,1.20
2022-09-23T18:48:00.178Z,1.20
2022-09-23T18:50:43.969Z,1.10
2022-09-23T18:53:10.808Z,1.30
2022-09-23T18:55:37.530Z,1.27
2022-09-23T18:58:07.442Z,1.20
2022-09-23T19:00:35.087Z,1.33
2022-09-23T19:03:02.201Z,1.20
2022-09-23T19:05:29.099Z,1.02
2022-09-23T19:07:55.652Z,1.10
2022-09-23T19:10:22.323Z,1.00
2022-09-23T19:12:49.209Z,1.10
2022-09-23T19:15:15.816Z,1.08
2022-09-23T19:17:42.408Z,1.20
2022-09-23T19:20:10.078Z,1.10
2022-09-23T19:22:36.687Z,1.15
2022-09-23T19:25:03.466Z,1.20
2022-09-23T19:27:31.377Z,1.13
2022-09-23T19:29:57.979Z,1.10
2022-09-23T19:32:26.707Z,1.08
2022-09-23T19:34:53.618Z,1.27
2022-09-23T19:37:20.339Z,1.20
2022-09-23T19:39:47.659Z,1.27
2022-09-23T19:42:14.279Z,1.30
2022-09-23T19:44:41.020Z,1.10
2022-09-23T19:47:08.044Z,1.30
2022-09-23T19:49:37.836Z,1.20
2022-09-23T19:52:04.427Z,1.10
2022-09-23T19:54:30.983Z,1.10
2022-09-23T19:56:57.605Z,1.00
2022-09-23T19:59:26.304Z,0.98
2022-09-23T20:01:53.080Z,0.90
2022-09-23T20:04:20.207Z,0.77
2022-09-23T20:06:49.642Z,0.90
2022-09-23T20:09:16.314Z,0.80
2022-09-23T20:11:43.087Z,0.90
2022-09-23T20:14:11.027Z,0.80
2022-09-23T20:16:37.934Z,0.85
2022-09-23T20:19:05.793Z,1.00
2022-09-23T20:21:33.852Z,0.90
2022-09-23T20:24:01.462Z,0.90
2022-09-23T20:26:46.868Z,0.93
2022-09-23T20:29:14.481Z,1.00
2022-09-23T20:31:41.609Z,1.00
2022-09-23T20:34:11.102Z,0.98
2022-09-23T20:36:39.521Z,1.10
2022-09-23T20:39:06.589Z,1.10
2022-09-23T20:41:37.639Z,1.10
2022-09-23T20:44:07.816Z,1.10
2022-09-23T20:46:35.113Z,1.10
2022-09-23T20:49:02.220Z,1.00
2022-09-23T20:51:29.300Z,1.20
2022-09-23T20:53:55.972Z,1.20
2022-09-23T20:56:23.446Z,1.20
2022-09-23T20:58:54.115Z,1.10
2022-09-23T21:01:21.593Z,1.10
2022-09-23T21:03:50.224Z,1.25
2022-09-23T21:06:19.008Z,1.10
2022-09-23T21:08:46.549Z,1.10
2022-09-23T21:11:15.817Z,1.00
2022-09-23T21:13:50.807Z,1.00
2022-09-23T21:16:21.526Z,1.00
2022-09-23T21:18:50.445Z,1.00
2022-09-23T21:21:19.532Z,1.08
2022-09-23T21:23:46.748Z,0.90
2022-09-23T21:26:17.485Z,0.93
2022-09-23T21:28:46.122Z,1.10
2022-09-23T21:31:22.816Z,0.90
2022-09-23T21:33:56.634Z,1.00
2022-09-23T21:36:24.544Z,1.10
2022-09-23T21:38:52.052Z,0.95
2022-09-23T21:41:19.391Z,0.88
2022-09-23T21:43:46.090Z,1.00
2022-09-23T21:46:14.872Z,0.90
2022-09-23T21:48:42.408Z,0.88
2022-09-23T21:51:14.640Z,0.90
2022-09-23T21:53:42.723Z,1.00
2022-09-23T21:56:20.308Z,0.90
2022-09-23T21:58:47.490Z,0.90
2022-09-23T22:01:17.010Z,1.30
2022-09-23T22:03:48.301Z,1.30
2022-09-23T22:06:21.303Z,1.50
2022-09-23T22:08:51.343Z,2.10
2022-09-23T22:11:39.392Z,2.10
2022-09-23T22:14:07.510Z,2.00
2022-09-23T22:16:34.368Z,1.70
2022-09-23T22:19:01.251Z,1.70
2022-09-23T22:21:30.108Z,1.58
2022-09-23T22:23:58.935Z,1.83
2022-09-23T22:26:25.486Z,1.55
2022-09-23T22:29:10.517Z,1.60
2022-09-23T22:31:55.791Z,1.42
2022-09-23T22:34:48.607Z,1.17
2022-09-23T22:37:20.562Z,1.10
2022-09-23T22:39:47.198Z,1.17
2022-09-23T22:42:14.202Z,0.90
2022-09-23T22:44:41.035Z,1.00
2022-09-23T22:47:09.287Z,1.00
2022-09-23T22:49:36.326Z,1.10
2022-09-23T22:52:06.970Z,1.00
2022-09-23T22:54:34.495Z,1.00
2022-09-23T22:57:03.446Z,1.00
2022-09-23T22:59:30.204Z,1.00
2022-09-23T23:01:57.535Z,1.00
2022-09-23T23:04:24.230Z,1.00
2022-09-23T23:06:50.995Z,0.90
2022-09-23T23:09:18.832Z,1.00
2022-09-23T23:11:45.863Z,1.10
2022-09-23T23:14:17.960Z,1.15
2022-09-23T23:16:46.101Z,1.00
2022-09-23T23:19:14.846Z,1.20
2022-09-23T23:21:44.821Z,1.10
2022-09-23T23:24:19.636Z,1.15
2022-09-23T23:26:46.659Z,0.90
2022-09-23T23:29:15.289Z,0.90
2022-09-23T23:31:42.747Z,1.00
2022-09-23T23:34:18.038Z,1.00
2022-09-23T23:36:45.887Z,1.00
2022-09-23T23:39:13.650Z,0.98
2022-09-23T23:41:41.841Z,1.00
2022-09-23T23:44:09.208Z,1.02
2022-09-23T23:46:37.280Z,0.80
2022-09-23T23:49:04.976Z,0.98
2022-09-23T23:51:31.699Z,1.00
2022-09-23T23:53:58.807Z,1.05
2022-09-23T23:56:26.328Z,0.90
2022-09-23T23:58:54.628Z,1.13
